x

Western Hawaii - 205 Nm Sw Of Honolulu, Hi (51003) Wave Buoy

12:50am - Sat 5th Sep 2015 All times are HST. -10 hours from GMT.

  • Sig Wave height 7.9ft
  • Swell Direction
  • Peak Period 14s
  • Average Period 10s
  • Wind
    4mph, 7mph gusts
  • Sea Temp 85°f
  • Air Temp 83°f
  • Sea Pressure 1010.3mb
  • Western  Hawaii - 205 Nm Sw Of Honolulu, Hi
  • Western  Hawaii - 205 Nm Sw Of Honolulu, Hi

More Historic Weather Station data

Upgrade to MSW Pro to gain access to the past 30 days of data for over 8000 Wavebouys and Weather Stations around the globe.

Join Pro

Comparision Forecast

View Surf forecast
   
Sat 09/05 12:50am 8ft 14s 10s 4 7 mph 1010.3mb 85f 83f
Fri 09/04 11:50pm 8ft 13s 10s 7 9 mph 1010.6mb 85f 83f
10:50pm 7ft 14s 10s 4 7 mph 1011.1mb 85f 83f
9:50pm 7ft 14s 10s 7 9 mph 1011mb 85f 83f
8:50pm 7.5ft 17s 10s 4 7 mph 1010.6mb 85f 83f
7:50pm 7ft 17s 10s 4 7 mph 1010.2mb 86f 83f
6:50pm 7.5ft 17s 10s 4 7 mph 1009.7mb 85f 83f
5:50pm 8ft 13s 10s 7 11 mph 1009.5mb 86f 83f
4:50pm 8ft 12s 10s 4 7 mph 1009.1mb 86f 83f
3:50pm 9ft 13s 10s 7 11 mph 1008.8mb 86f 83f
2:50pm 8.5ft 13s 10s 7 9 mph 1009mb 86f 83f
1:50pm 7.5ft 14s 10s 7 9 mph 1009.5mb 85f 83f
12:50pm 8ft 14s 11s 7 11 mph 1010mb 85f 82f
11:50am 7.5ft 11s 10s 7 9 mph 1010.6mb 85f 82f
10:50am 7ft 11s 9s 4 9 mph 1011.3mb 85f 82f
9:50am 7ft 12s 10s 9 11 mph 1011.4mb 85f 82f
8:50am 7ft 12s 10s 7 9 mph 1011.2mb 85f 82f
7:50am 7ft 11s 10s 4 7 mph 1010.8mb 85f 82f
6:50am 7ft 11s 9s 4 7 mph 1010.5mb 85f 81f
5:50am 7.5ft 14s 10s 7 9 mph 1010.2mb 85f 81f
4:50am 8ft 14s 10s 9 11 mph 1009.5mb 85f 81f
3:50am 8ft 14s 10s 11 13 mph 1009.4mb 85f 81f
2:50am 8ft 15s 10s 11 16 mph 1010.2mb 85f 81f
1:50am 7ft 15s 10s 9 13 mph 1010.4mb 85f 82f
12:50am 7ft 15s 10s 7 9 mph 1010.9mb 85f 81f
Thu 09/03 11:50pm 6.5ft 11s 10s 7 11 mph 1011.5mb 85f 81f
10:50pm 7.5ft 13s 10s 9 11 mph 1011.6mb 85f 79f
9:50pm 7ft 12s 10s 18 22 mph 1011.6mb 85f 79f
8:50pm 7ft 11s 10s 4 7 mph 1011.2mb 85f 83f
7:50pm 7ft 12s 10s 4 7 mph 1010.3mb 85f 83f
6:50pm 6ft 12s 9s 4 7 mph 1009.9mb 85f 83f
5:50pm 7ft 12s 10s 4 7 mph 1009.4mb 85f 83f
4:50pm 6.5ft 14s 9s 7 9 mph 1009.4mb 85f 83f
3:50pm 7ft 11s 9s 9 11 mph 1009mb 86f 83f
2:50pm 7.5ft 14s 9s 7 9 mph 1009mb 85f 83f
1:50pm 7ft 15s 10s 9 11 mph 1009.6mb 85f 82f
12:50pm 6.5ft 14s 9s 11 16 mph 1010.9mb 85f 82f
11:50am 6.5ft 15s 9s 13 18 mph 1011.7mb 85f 81f
10:50am 7.5ft 15s 10s 11 16 mph 1011.4mb 85f 82f
9:50am 7ft 15s 10s 11 13 mph 1011.7mb 85f 80f
8:50am 6ft 16s 9s 11 13 mph 1011.6mb 85f 80f
7:50am 6.5ft 16s 9s 11 13 mph 1011.1mb 85f 80f
6:50am 6ft 15s 9s 13 16 mph 1010.6mb 85f 80f
5:50am 6ft 16s 9s 16 20 mph 1010mb 85f 80f
4:50am 7ft 12s 9s 7 9 mph 1010.1mb 85f 81f
3:50am 6.5ft 14s 9s 7 9 mph 1010mb 85f 83f
2:50am 6.5ft 12s 10s 9 11 mph 1009.7mb 85f 83f
1:50am 6ft 14s 9s 7 9 mph 1010.6mb 85f 83f
12:50am 7ft 14s 10s 4 7 mph 1010.8mb 85f 82f
Wed 09/02 11:50pm 7ft 15s 10s 11
mph
1011.3mb 85f 82f
10:50pm 7ft 15s 10s 4 7 mph 1011.7mb 85f 83f
9:50pm 7ft 16s 10s 7 13 mph 1011.7mb 85f 82f
8:50pm 7.5ft 15s 10s 4 7 mph 1011mb 85f 83f
7:50pm 7ft 15s 10s 2 7 mph 1010.1mb 85f 83f
6:50pm 7ft 11s 9s 2 4 mph 1009.5mb 85f 83f
5:50pm 7ft 16s 9s 2 7 mph 1009.1mb 85f 83f
4:50pm 6.5ft 11s 9s  -  4 mph 1009mb 85f 83f
3:50pm 7ft 16s 10s 2 4 mph 1009mb 85f 83f
2:50pm 8ft 11s 10s 4 7 mph 1009.5mb 85f 82f
1:50pm 8ft 11s 10s 4 7 mph 1010.2mb 86f 83f
12:50pm 8ft 16s 11s 4
mph
1010.6mb 86f 83f
11:50am 8.5ft 16s 11s 2 4 mph 1010.9mb 85f 82f
10:50am 9ft 12s 10s 9 11 mph 1011.4mb 85f 82f
9:50am 8ft 16s 10s 4 9 mph 1011.5mb 85f 83f
8:50am 7.5ft 16s 10s 2 4 mph 1011.2mb 85f 83f
7:50am 6.5ft 16s 9s 4 7 mph 1010.7mb 85f 83f
6:50am 6ft 16s 9s 2 4 mph 1010.5mb 85f 82f
5:50am 6ft 16s 8s 2 4 mph 1010.4mb 85f 82f
4:50am 5.5ft 10s 8s 4 7 mph 1009.9mb 85f 82f
3:50am 6ft 17s 8s 2 7 mph 1010.1mb 85f 81f
2:50am 5ft 12s 8s 7
mph
1010.6mb 85f 83f
1:50am 5.5ft 11s 8s 2 4 mph 1011.2mb 85f 83f
12:50am 5ft 13s 8s 4 9 mph 1011.5mb 85f 82f
Tue 09/01 11:50pm 5ft 17s 8s 11 13 mph 1011.8mb 85f 82f
10:50pm 5ft 9s 7s 7
mph
1012.1mb 86f 83f
9:50pm 5.5ft 12s 8s 7
mph
1011.9mb 86f 84f
8:50pm 6ft 11s 8s 7 9 mph 1011.1mb 86f 84f
7:50pm 6ft 11s 8s 4 7 mph 1010.8mb 86f 84f
6:50pm 6ft 12s 8s 4 7 mph 1010.4mb 86f 84f
5:50pm 6.5ft 11s 8s 4 7 mph 1009.9mb 87f 84f
4:50pm 6.5ft 11s 8s 4 7 mph 1009.7mb - 84f
3:50pm 6.5ft 11s 8s 9 11 mph 1009.6mb - 83f
2:50pm 6ft 12s 9s 2 7 mph 1009.7mb - 84f
1:50pm 7ft 13s 9s 2 7 mph 1010.2mb 87f 84f
12:50pm 8ft 13s 9s 4 7 mph 1010.9mb 86f 83f